sensor_id;sensor_type;location;lat;lon;timestamp;pressure;altitude;pressure_sealevel;temperature;humidity
58973;BME280;44750;52.040;7.472;2022-11-15T00:01:59;99937.28;;;8.83;47.34
58973;BME280;44750;52.040;7.472;2022-11-15T00:07:01;99909.28;;;8.76;47.65
58973;BME280;44750;52.040;7.472;2022-11-15T00:12:02;99929.03;;;8.85;46.77
58973;BME280;44750;52.040;7.472;2022-11-15T00:17:02;99929.91;;;8.85;46.16
58973;BME280;44750;52.040;7.472;2022-11-15T00:22:02;99927.41;;;8.92;45.74
58973;BME280;44750;52.040;7.472;2022-11-15T00:27:02;99929.94;;;8.94;46.70
58973;BME280;44750;52.040;7.472;2022-11-15T00:32:03;99905.06;;;8.82;46.32
58973;BME280;44750;52.040;7.472;2022-11-15T00:37:03;99929.66;;;9.05;46.00
58973;BME280;44750;52.040;7.472;2022-11-15T00:42:03;99938.41;;;9.07;45.42
58973;BME280;44750;52.040;7.472;2022-11-15T00:47:03;99942.19;;;9.14;45.66
58973;BME280;44750;52.040;7.472;2022-11-15T00:52:04;99923.22;;;9.06;45.91
58973;BME280;44750;52.040;7.472;2022-11-15T00:57:04;99928.97;;;9.11;45.29
58973;BME280;44750;52.040;7.472;2022-11-15T01:02:04;99910.75;;;9.05;45.69
58973;BME280;44750;52.040;7.472;2022-11-15T01:07:04;99911.22;;;9.00;45.09
58973;BME280;44750;52.040;7.472;2022-11-15T01:12:05;99916.47;;;9.02;44.43
58973;BME280;44750;52.040;7.472;2022-11-15T01:17:05;99917.81;;;9.06;43.80
58973;BME280;44750;52.040;7.472;2022-11-15T01:22:05;99921.69;;;9.03;43.18
58973;BME280;44750;52.040;7.472;2022-11-15T01:27:05;99892.97;;;8.94;43.10
58973;BME280;44750;52.040;7.472;2022-11-15T01:32:05;99914.47;;;9.04;42.10
58973;BME280;44750;52.040;7.472;2022-11-15T01:37:06;99920.22;;;9.09;40.86
58973;BME280;44750;52.040;7.472;2022-11-15T01:42:12;99925.81;;;9.16;40.22
58973;BME280;44750;52.040;7.472;2022-11-15T01:47:48;99932.56;;;9.20;39.68
58973;BME280;44750;52.040;7.472;2022-11-15T01:52:41;99917.19;;;9.20;39.40
58973;BME280;44750;52.040;7.472;2022-11-15T01:57:44;99906.75;;;9.17;38.76
58973;BME280;44750;52.040;7.472;2022-11-15T02:02:46;99915.84;;;9.16;37.17
58973;BME280;44750;52.040;7.472;2022-11-15T02:07:47;99933.09;;;9.24;34.49
58973;BME280;44750;52.040;7.472;2022-11-15T02:12:48;99929.69;;;9.22;32.59
58973;BME280;44750;52.040;7.472;2022-11-15T02:18:15;99916.91;;;9.24;31.15
58973;BME280;44750;52.040;7.472;2022-11-15T02:29:01;99909.78;;;9.23;27.79
58973;BME280;44750;52.040;7.472;2022-11-15T02:34:27;99927.03;;;9.30;25.88
58973;BME280;44750;52.040;7.472;2022-11-15T02:39:49;99928.56;;;9.32;24.47
58973;BME280;44750;52.040;7.472;2022-11-15T02:44:51;99936.13;;;9.29;22.70
58973;BME280;44750;52.040;7.472;2022-11-15T02:49:54;99931.25;;;9.32;20.69
58973;BME280;44750;52.040;7.472;2022-11-15T02:54:58;99938.72;;;9.39;17.87
58973;BME280;44750;52.040;7.472;2022-11-15T03:00:17;99945.31;;;9.44;15.30
58973;BME280;44750;52.040;7.472;2022-11-15T03:11:09;99963.69;;;9.49;9.13
58973;BME280;44750;52.040;7.472;2022-11-15T03:16:22;99975.91;;;9.53;7.37
58973;BME280;44750;52.040;7.472;2022-11-15T03:21:25;99994.81;;;9.53;5.44
58973;BME280;44750;52.040;7.472;2022-11-15T03:26:29;99997.66;;;9.51;3.43
58973;BME280;44750;52.040;7.472;2022-11-15T03:31:33;100003.41;;;9.48;1.39
58973;BME280;44750;52.040;7.472;2022-11-15T03:36:37;100029.44;;;9.58;0.00
58973;BME280;44750;52.040;7.472;2022-11-15T03:41:43;100034.66;;;9.59;0.00
58973;BME280;44750;52.040;7.472;2022-11-15T03:46:52;100051.06;;;9.66;0.00
58973;BME280;44750;52.040;7.472;2022-11-15T03:51:58;100069.00;;;9.75;0.00
58973;BME280;44750;52.040;7.472;2022-11-15T03:56:59;100079.00;;;9.83;0.00
58973;BME280;44750;52.040;7.472;2022-11-15T04:01:59;100091.38;;;9.94;0.00
58973;BME280;44750;52.040;7.472;2022-11-15T04:06:59;100110.31;;;10.02;0.00
58973;BME280;44750;52.040;7.472;2022-11-15T04:11:59;100124.19;;;10.07;0.00
58973;BME280;44750;52.040;7.472;2022-11-15T04:17:00;100127.25;;;10.12;0.00
58973;BME280;44750;52.040;7.472;2022-11-15T04:22:00;100149.91;;;10.19;0.00
58973;BME280;44750;52.040;7.472;2022-11-15T04:27:00;100156.38;;;10.27;0.00
58973;BME280;44750;52.040;7.472;2022-11-15T04:32:02;100173.97;;;10.31;0.00
58973;BME280;44750;52.040;7.472;2022-11-15T04:37:02;100186.19;;;10.35;0.00
58973;BME280;44750;52.040;7.472;2022-11-15T04:42:03;100205.16;;;10.43;0.00
58973;BME280;44750;52.040;7.472;2022-11-15T04:47:03;100225.63;;;10.54;0.00
58973;BME280;44750;52.040;7.472;2022-11-15T04:52:04;100233.81;;;10.62;0.00
58973;BME280;44750;52.040;7.472;2022-11-15T04:57:04;100249.03;;;10.71;0.00
58973;BME280;44750;52.040;7.472;2022-11-15T05:02:04;100253.25;;;10.74;0.00
58973;BME280;44750;52.040;7.472;2022-11-15T05:07:04;100265.97;;;10.82;0.00
58973;BME280;44750;52.040;7.472;2022-11-15T05:12:04;100290.06;;;10.93;0.00
58973;BME280;44750;52.040;7.472;2022-11-15T05:17:05;100297.84;;;10.96;0.00
58973;BME280;44750;52.040;7.472;2022-11-15T05:22:05;100308.84;;;11.03;0.00
58973;BME280;44750;52.040;7.472;2022-11-15T05:27:05;100325.63;;;11.07;0.00
58973;BME280;44750;52.040;7.472;2022-11-15T05:32:06;100331.41;;;11.12;0.00
58973;BME280;44750;52.040;7.472;2022-11-15T05:37:08;100332.22;;;11.12;0.00
58973;BME280;44750;52.040;7.472;2022-11-15T05:42:11;100345.44;;;11.15;0.00
58973;BME280;44750;52.040;7.472;2022-11-15T05:47:17;100344.59;;;11.15;0.00
58973;BME280;44750;52.040;7.472;2022-11-15T05:52:22;100357.97;;;11.16;0.00
58973;BME280;44750;52.040;7.472;2022-11-15T05:57:24;100360.00;;;11.14;0.00
58973;BME280;44750;52.040;7.472;2022-11-15T06:02:25;100379.84;;;11.23;0.00
58973;BME280;44750;52.040;7.472;2022-11-15T06:07:25;100404.41;;;11.30;0.00
58973;BME280;44750;52.040;7.472;2022-11-15T06:12:25;100413.91;;;11.34;0.00
58973;BME280;44750;52.040;7.472;2022-11-15T06:17:25;100426.78;;;11.40;0.00
58973;BME280;44750;52.040;7.472;2022-11-15T06:22:26;100436.28;;;11.44;0.00
58973;BME280;44750;52.040;7.472;2022-11-15T06:27:27;100440.88;;;11.44;0.00
58973;BME280;44750;52.040;7.472;2022-11-15T06:32:29;100457.63;;;11.47;0.00
58973;BME280;44750;52.040;7.472;2022-11-15T06:37:29;100465.09;;;11.45;0.00
58973;BME280;44750;52.040;7.472;2022-11-15T06:42:29;100469.34;;;11.48;0.00
58973;BME280;44750;52.040;7.472;2022-11-15T06:47:29;100499.34;;;11.54;0.00
58973;BME280;44750;52.040;7.472;2022-11-15T06:52:30;100511.91;;;11.56;0.00
58973;BME280;44750;52.040;7.472;2022-11-15T06:57:33;100527.13;;;11.57;0.00
58973;BME280;44750;52.040;7.472;2022-11-15T07:02:33;100530.69;;;11.57;0.00
58973;BME280;44750;52.040;7.472;2022-11-15T07:07:33;100548.50;;;11.60;0.00
58973;BME280;44750;52.040;7.472;2022-11-15T07:12:34;100566.59;;;11.59;0.00
58973;BME280;44750;52.040;7.472;2022-11-15T07:17:34;100588.66;;;11.64;0.00
58973;BME280;44750;52.040;7.472;2022-11-15T07:22:34;100603.72;;;11.59;0.00
58973;BME280;44750;52.040;7.472;2022-11-15T07:27:35;100613.22;;;11.63;0.00
58973;BME280;44750;52.040;7.472;2022-11-15T07:32:35;100632.88;;;11.65;0.00
58973;BME280;44750;52.040;7.472;2022-11-15T07:37:35;100634.38;;;11.59;0.00
58973;BME280;44750;52.040;7.472;2022-11-15T07:42:35;100651.53;;;11.60;0.00
58973;BME280;44750;52.040;7.472;2022-11-15T07:47:35;100677.97;;;11.66;0.00
58973;BME280;44750;52.040;7.472;2022-11-15T07:52:36;100673.88;;;11.62;0.00
58973;BME280;44750;52.040;7.472;2022-11-15T07:57:36;100676.06;;;11.58;0.00
58973;BME280;44750;52.040;7.472;2022-11-15T08:02:37;100688.78;;;11.58;0.00
58973;BME280;44750;52.040;7.472;2022-11-15T08:07:37;100697.75;;;11.58;0.00
58973;BME280;44750;52.040;7.472;2022-11-15T08:12:37;100717.09;;;11.63;0.00
58973;BME280;44750;52.040;7.472;2022-11-15T08:17:37;100741.03;;;11.68;0.00
58973;BME280;44750;52.040;7.472;2022-11-15T08:22:38;100746.84;;;11.73;0.00
58973;BME280;44750;52.040;7.472;2022-11-15T08:27:38;100758.91;;;11.79;0.00
58973;BME280;44750;52.040;7.472;2022-11-15T08:32:38;100775.91;;;11.89;0.00
58973;BME280;44750;52.040;7.472;2022-11-15T08:37:38;100777.84;;;11.97;0.00
58973;BME280;44750;52.040;7.472;2022-11-15T08:42:39;100754.50;;;12.04;0.00
58973;BME280;44750;52.040;7.472;2022-11-15T08:47:39;100767.81;;;12.24;0.00
58973;BME280;44750;52.040;7.472;2022-11-15T08:52:39;100752.25;;;12.34;0.00
58973;BME280;44750;52.040;7.472;2022-11-15T08:57:39;100750.94;;;12.46;0.00
58973;BME280;44750;52.040;7.472;2022-11-15T09:02:40;100742.19;;;12.69;0.00
58973;BME280;44750;52.040;7.472;2022-11-15T09:07:40;100728.63;;;12.85;0.00
58973;BME280;44750;52.040;7.472;2022-11-15T09:12:43;100676.84;;;12.87;0.00
58973;BME280;44750;52.040;7.472;2022-11-15T09:17:43;100637.13;;;12.94;0.00
58973;BME280;44750;52.040;7.472;2022-11-15T09:22:44;100552.88;;;12.86;0.00
58973;BME280;44750;52.040;7.472;2022-11-15T09:27:44;100493.31;;;12.84;0.00
58973;BME280;44750;52.040;7.472;2022-11-15T09:32:44;100427.78;;;12.87;0.00
58973;BME280;44750;52.040;7.472;2022-11-15T09:37:44;100360.53;;;12.90;0.00
58973;BME280;44750;52.040;7.472;2022-11-15T09:48:14;100196.75;;;13.04;0.00
58973;BME280;44750;52.040;7.472;2022-11-15T09:53:29;100109.50;;;12.99;0.00
58973;BME280;44750;52.040;7.472;2022-11-15T09:58:38;100050.47;;;12.93;0.00
58973;BME280;44750;52.040;7.472;2022-11-15T10:03:40;99978.72;;;12.87;0.00
58973;BME280;44750;52.040;7.472;2022-11-15T10:08:46;99904.91;;;12.68;0.00
58973;BME280;44750;52.040;7.472;2022-11-15T10:13:51;99825.06;;;12.63;0.00
58973;BME280;44750;52.040;7.472;2022-11-15T10:19:25;99756.53;;;12.61;0.00
58973;BME280;44750;52.040;7.472;2022-11-15T10:24:34;99705.81;;;12.61;1.46
58973;BME280;44750;52.040;7.472;2022-11-15T10:29:35;99688.78;;;12.74;7.41
58973;BME280;44750;52.040;7.472;2022-11-15T10:34:36;99651.44;;;12.98;13.23
58973;BME280;44750;52.040;7.472;2022-11-15T10:39:36;99610.53;;;13.06;19.79
58973;BME280;44750;52.040;7.472;2022-11-15T10:44:42;99580.59;;;13.21;26.25
58973;BME280;44750;52.040;7.472;2022-11-15T10:49:54;99516.97;;;13.15;33.20
58973;BME280;44750;52.040;7.472;2022-11-15T10:55:20;99465.25;;;12.95;36.84
58973;BME280;44750;52.040;7.472;2022-11-15T11:00:29;99465.75;;;13.12;36.24
58973;BME280;44750;52.040;7.472;2022-11-15T11:05:35;99428.53;;;13.06;38.10
58973;BME280;44750;52.040;7.472;2022-11-15T11:10:35;99445.38;;;13.30;36.86
58973;BME280;44750;52.040;7.472;2022-11-15T11:15:36;99419.94;;;13.44;37.54
58973;BME280;44750;52.040;7.472;2022-11-15T11:20:44;99394.69;;;13.50;40.26
58973;BME280;44750;52.040;7.472;2022-11-15T11:31:24;99335.72;;;13.64;50.21
58973;BME280;44750;52.040;7.472;2022-11-15T11:37:03;99289.06;;;13.74;58.67
58973;BME280;44750;52.040;7.472;2022-11-15T11:47:22;99129.06;;;13.71;94.52
58973;BME280;44750;52.040;7.472;2022-11-15T11:52:33;99050.22;;;13.64;100.00
58973;BME280;44750;52.040;7.472;2022-11-15T11:57:48;99028.25;;;13.73;100.00
58973;BME280;44750;52.040;7.472;2022-11-15T12:03:05;98976.78;;;13.71;100.00
58973;BME280;44750;52.040;7.472;2022-11-15T12:13:29;98915.34;;;13.95;100.00
58973;BME280;44750;52.040;7.472;2022-11-15T12:18:30;98859.50;;;13.93;100.00
58973;BME280;44750;52.040;7.472;2022-11-15T12:23:34;98814.28;;;13.98;100.00
58973;BME280;44750;52.040;7.472;2022-11-15T12:28:46;98754.06;;;13.95;100.00
58973;BME280;44750;52.040;7.472;2022-11-15T12:33:48;98680.00;;;13.93;100.00
58973;BME280;44750;52.040;7.472;2022-11-15T12:39:00;98633.63;;;13.87;100.00
58973;BME280;44750;52.040;7.472;2022-11-15T12:44:01;98579.25;;;13.87;100.00
58973;BME280;44750;52.040;7.472;2022-11-15T12:54:49;98400.47;;;13.95;100.00
58973;BME280;44750;52.040;7.472;2022-11-15T12:59:55;98357.34;;;14.10;100.00
58973;BME280;44750;52.040;7.472;2022-11-15T13:15:37;98114.63;;;14.20;100.00
58973;BME280;44750;52.040;7.472;2022-11-15T13:20:37;97980.88;;;14.11;100.00
58973;BME280;44750;52.040;7.472;2022-11-15T13:26:18;97894.81;;;14.05;100.00
58973;BME280;44750;52.040;7.472;2022-11-15T13:31:27;97838.25;;;14.07;100.00
58973;BME280;44750;52.040;7.472;2022-11-15T13:36:31;97815.88;;;14.17;100.00
58973;BME280;44750;52.040;7.472;2022-11-15T13:41:34;97768.13;;;14.09;100.00
58973;BME280;44750;52.040;7.472;2022-11-15T13:46:34;97709.88;;;14.05;100.00
58973;BME280;44750;52.040;7.472;2022-11-15T13:51:49;97716.47;;;14.09;100.00
58973;BME280;44750;52.040;7.472;2022-11-15T13:57:00;97697.69;;;14.08;100.00
58973;BME280;44750;52.040;7.472;2022-11-15T14:02:14;97664.38;;;14.00;100.00
58973;BME280;44750;52.040;7.472;2022-11-15T14:07:21;97579.72;;;13.92;100.00
58973;BME280;44750;52.040;7.472;2022-11-15T14:12:34;97523.94;;;13.89;100.00
58973;BME280;44750;52.040;7.472;2022-11-15T14:17:36;97471.13;;;13.85;100.00
58973;BME280;44750;52.040;7.472;2022-11-15T14:22:54;97445.34;;;13.87;100.00
58973;BME280;44750;52.040;7.472;2022-11-15T14:28:14;97416.50;;;13.86;100.00
58973;BME280;44750;52.040;7.472;2022-11-15T14:33:47;97312.50;;;13.74;100.00
58973;BME280;44750;52.040;7.472;2022-11-15T14:38:47;97247.75;;;13.66;100.00
58973;BME280;44750;52.040;7.472;2022-11-15T14:43:48;97195.22;;;13.55;100.00
58973;BME280;44750;52.040;7.472;2022-11-15T14:48:48;97180.78;;;13.49;100.00
58973;BME280;44750;52.040;7.472;2022-11-15T14:53:49;97149.22;;;13.43;100.00
58973;BME280;44750;52.040;7.472;2022-11-15T14:58:49;97116.56;;;13.38;100.00
58973;BME280;44750;52.040;7.472;2022-11-15T15:03:49;97082.25;;;13.27;100.00
58973;BME280;44750;52.040;7.472;2022-11-15T15:08:49;97062.63;;;13.19;100.00
58973;BME280;44750;52.040;7.472;2022-11-15T15:13:50;97044.56;;;13.03;100.00
58973;BME280;44750;52.040;7.472;2022-11-15T15:18:51;97058.03;;;12.93;100.00
58973;BME280;44750;52.040;7.472;2022-11-15T15:23:52;97101.94;;;12.84;100.00
58973;BME280;44750;52.040;7.472;2022-11-15T15:28:52;97143.44;;;12.80;100.00
58973;BME280;44750;52.040;7.472;2022-11-15T15:33:52;97147.47;;;12.77;100.00
58973;BME280;44750;52.040;7.472;2022-11-15T15:38:55;97127.81;;;12.65;100.00
58973;BME280;44750;52.040;7.472;2022-11-15T15:43:55;97135.44;;;12.68;100.00
58973;BME280;44750;52.040;7.472;2022-11-15T15:48:55;97105.47;;;12.58;100.00
58973;BME280;44750;52.040;7.472;2022-11-15T15:53:55;97105.47;;;12.58;100.00
58973;BME280;44750;52.040;7.472;2022-11-15T15:58:56;97132.59;;;12.58;100.00
58973;BME280;44750;52.040;7.472;2022-11-15T16:03:56;97170.84;;;12.56;100.00
58973;BME280;44750;52.040;7.472;2022-11-15T16:08:56;97232.91;;;12.52;100.00
58973;BME280;44750;52.040;7.472;2022-11-15T16:13:56;97299.59;;;12.48;100.00
58973;BME280;44750;52.040;7.472;2022-11-15T16:18:57;97356.56;;;12.48;100.00
58973;BME280;44750;52.040;7.472;2022-11-15T16:23:57;97424.88;;;12.45;100.00
58973;BME280;44750;52.040;7.472;2022-11-15T16:28:57;97435.66;;;12.40;100.00
58973;BME280;44750;52.040;7.472;2022-11-15T16:33:57;97436.97;;;12.37;100.00
58973;BME280;44750;52.040;7.472;2022-11-15T16:38:58;97407.03;;;12.32;100.00
58973;BME280;44750;52.040;7.472;2022-11-15T16:43:59;97384.09;;;12.23;100.00
58973;BME280;44750;52.040;7.472;2022-11-15T16:48:59;97410.06;;;12.19;100.00
58973;BME280;44750;52.040;7.472;2022-11-15T16:53:59;97472.19;;;12.20;100.00
58973;BME280;44750;52.040;7.472;2022-11-15T16:59:00;97525.25;;;12.16;100.00
58973;BME280;44750;52.040;7.472;2022-11-15T17:04:02;97625.34;;;12.18;100.00
58973;BME280;44750;52.040;7.472;2022-11-15T17:09:03;97699.41;;;12.18;100.00
58973;BME280;44750;52.040;7.472;2022-11-15T17:14:03;97766.09;;;12.19;100.00
58973;BME280;44750;52.040;7.472;2022-11-15T17:19:03;97839.13;;;12.21;100.00
58973;BME280;44750;52.040;7.472;2022-11-15T17:24:04;97882.03;;;12.24;100.00
58973;BME280;44750;52.040;7.472;2022-11-15T17:29:04;97913.53;;;12.25;100.00
58973;BME280;44750;52.040;7.472;2022-11-15T17:34:05;97930.72;;;12.19;100.00
58973;BME280;44750;52.040;7.472;2022-11-15T17:39:06;97981.56;;;12.24;100.00
58973;BME280;44750;52.040;7.472;2022-11-15T17:44:06;98015.38;;;12.21;100.00
58973;BME280;44750;52.040;7.472;2022-11-15T17:49:06;98078.34;;;12.23;100.00
58973;BME280;44750;52.040;7.472;2022-11-15T17:54:09;98150.91;;;12.28;100.00
58973;BME280;44750;52.040;7.472;2022-11-15T17:59:09;98191.59;;;12.28;100.00
58973;BME280;44750;52.040;7.472;2022-11-15T18:04:10;98252.09;;;12.28;100.00
58973;BME280;44750;52.040;7.472;2022-11-15T18:09:10;98301.38;;;12.25;100.00
58973;BME280;44750;52.040;7.472;2022-11-15T18:14:14;98361.22;;;12.30;100.00
58973;BME280;44750;52.040;7.472;2022-11-15T18:19:14;98373.75;;;12.25;100.00
58973;BME280;44750;52.040;7.472;2022-11-15T18:24:14;98409.63;;;12.27;100.00
58973;BME280;44750;52.040;7.472;2022-11-15T18:29:14;98424.88;;;12.28;100.00
58973;BME280;44750;52.040;7.472;2022-11-15T18:34:15;98464.47;;;12.29;100.00
58973;BME280;44750;52.040;7.472;2022-11-15T18:39:16;98495.63;;;12.26;100.00
58973;BME280;44750;52.040;7.472;2022-11-15T18:44:16;98502.94;;;12.19;100.00
58973;BME280;44750;52.040;7.472;2022-11-15T18:49:17;98555.53;;;12.18;100.00
58973;BME280;44750;52.040;7.472;2022-11-15T18:54:17;98617.69;;;12.19;100.00
58973;BME280;44750;52.040;7.472;2022-11-15T18:59:17;98645.25;;;12.16;100.00
58973;BME280;44750;52.040;7.472;2022-11-15T19:04:19;98671.53;;;12.16;100.00
58973;BME280;44750;52.040;7.472;2022-11-15T19:09:19;98715.34;;;12.13;100.00
58973;BME280;44750;52.040;7.472;2022-11-15T19:14:19;98739.38;;;12.09;100.00
58973;BME280;44750;52.040;7.472;2022-11-15T19:19:24;98776.91;;;12.12;100.00
58973;BME280;44750;52.040;7.472;2022-11-15T19:24:25;98803.00;;;12.13;100.00
58973;BME280;44750;52.040;7.472;2022-11-15T19:29:25;98827.19;;;12.08;100.00
58973;BME280;44750;52.040;7.472;2022-11-15T19:34:26;98853.06;;;12.11;100.00
58973;BME280;44750;52.040;7.472;2022-11-15T19:39:26;98862.44;;;12.08;100.00
58973;BME280;44750;52.040;7.472;2022-11-15T19:44:26;98892.91;;;12.17;100.00
58973;BME280;44750;52.040;7.472;2022-11-15T19:49:26;98903.56;;;12.18;100.00
58973;BME280;44750;52.040;7.472;2022-11-15T19:54:27;98908.34;;;12.10;100.00
58973;BME280;44750;52.040;7.472;2022-11-15T19:59:27;98920.22;;;12.15;100.00
58973;BME280;44750;52.040;7.472;2022-11-15T20:04:27;98933.63;;;12.24;100.00
58973;BME280;44750;52.040;7.472;2022-11-15T20:09:27;98932.97;;;12.21;100.00
58973;BME280;44750;52.040;7.472;2022-11-15T20:14:28;98939.03;;;12.24;100.00
58973;BME280;44750;52.040;7.472;2022-11-15T20:19:28;98936.72;;;12.20;100.00
58973;BME280;44750;52.040;7.472;2022-11-15T20:24:28;98946.09;;;12.31;100.00
58973;BME280;44750;52.040;7.472;2022-11-15T20:29:28;98947.56;;;12.34;100.00
58973;BME280;44750;52.040;7.472;2022-11-15T20:34:29;98946.13;;;12.38;100.00
58973;BME280;44750;52.040;7.472;2022-11-15T20:39:29;98939.22;;;12.42;100.00
58973;BME280;44750;52.040;7.472;2022-11-15T20:44:29;98932.53;;;12.45;100.00
58973;BME280;44750;52.040;7.472;2022-11-15T20:49:30;98949.47;;;12.47;100.00
58973;BME280;44750;52.040;7.472;2022-11-15T20:54:30;98938.81;;;12.45;99.69
58973;BME280;44750;52.040;7.472;2022-11-15T20:59:30;98955.72;;;12.47;98.68
58973;BME280;44750;52.040;7.472;2022-11-15T21:04:30;98952.59;;;12.44;97.13
58973;BME280;44750;52.040;7.472;2022-11-15T21:09:30;98965.53;;;12.48;95.79
58973;BME280;44750;52.040;7.472;2022-11-15T21:14:31;98960.94;;;12.42;94.41
58973;BME280;44750;52.040;7.472;2022-11-15T21:19:31;98967.44;;;12.41;92.99
58973;BME280;44750;52.040;7.472;2022-11-15T21:24:31;98978.50;;;12.40;90.91
58973;BME280;44750;52.040;7.472;2022-11-15T21:29:31;98995.81;;;12.45;88.92
58973;BME280;44750;52.040;7.472;2022-11-15T21:34:32;98984.97;;;12.45;87.26
58973;BME280;44750;52.040;7.472;2022-11-15T21:39:32;98985.16;;;12.44;85.07
58973;BME280;44750;52.040;7.472;2022-11-15T21:44:32;98989.13;;;12.48;83.41
58973;BME280;44750;52.040;7.472;2022-11-15T21:49:32;98998.75;;;12.50;81.32
58973;BME280;44750;52.040;7.472;2022-11-15T21:54:33;98995.38;;;12.48;78.82
58973;BME280;44750;52.040;7.472;2022-11-15T21:59:36;99012.31;;;12.50;76.09
58973;BME280;44750;52.040;7.472;2022-11-15T22:04:36;99015.84;;;12.44;71.99
58973;BME280;44750;52.040;7.472;2022-11-15T22:09:36;99022.53;;;12.42;67.04
58973;BME280;44750;52.040;7.472;2022-11-15T22:14:36;99019.19;;;12.40;61.07
58973;BME280;44750;52.040;7.472;2022-11-15T22:19:36;99021.06;;;12.39;55.84
58973;BME280;44750;52.040;7.472;2022-11-15T22:24:37;99021.25;;;12.31;51.31
58973;BME280;44750;52.040;7.472;2022-11-15T22:29:37;99022.50;;;12.35;45.90
58973;BME280;44750;52.040;7.472;2022-11-15T22:34:37;99028.34;;;12.32;41.67
58973;BME280;44750;52.040;7.472;2022-11-15T22:39:37;99037.53;;;12.31;38.16
58973;BME280;44750;52.040;7.472;2022-11-15T22:44:37;99029.16;;;12.26;34.05
58973;BME280;44750;52.040;7.472;2022-11-15T22:49:38;99032.31;;;12.23;31.32
58973;BME280;44750;52.040;7.472;2022-11-15T22:54:38;99043.75;;;12.18;27.66
58973;BME280;44750;52.040;7.472;2022-11-15T22:59:41;99048.78;;;12.14;23.63
58973;BME280;44750;52.040;7.472;2022-11-15T23:04:42;99048.75;;;12.08;19.66
58973;BME280;44750;52.040;7.472;2022-11-15T23:09:43;99058.50;;;12.02;16.34
58973;BME280;44750;52.040;7.472;2022-11-15T23:14:44;99052.88;;;11.97;12.13
58973;BME280;44750;52.040;7.472;2022-11-15T23:19:44;99067.66;;;11.94;8.11
58973;BME280;44750;52.040;7.472;2022-11-15T23:24:44;99073.25;;;11.93;4.75
58973;BME280;44750;52.040;7.472;2022-11-15T23:29:45;99086.19;;;11.91;1.08
58973;BME280;44750;52.040;7.472;2022-11-15T23:34:45;99084.72;;;11.88;0.00
58973;BME280;44750;52.040;7.472;2022-11-15T23:39:47;99098.25;;;11.81;0.00
58973;BME280;44750;52.040;7.472;2022-11-15T23:44:47;99106.97;;;11.77;0.00
58973;BME280;44750;52.040;7.472;2022-11-15T23:49:48;99111.97;;;11.73;0.00
58973;BME280;44750;52.040;7.472;2022-11-15T23:54:48;99135.72;;;11.71;0.00
58973;BME280;44750;52.040;7.472;2022-11-15T23:59:48;99159.91;;;11.73;0.00
